createdAt,value
2019-01-10T00:00:11.393Z,79.58
2019-01-10T00:02:39.916Z,79.61
2019-01-10T00:05:10.051Z,79.87
2019-01-10T00:07:38.349Z,79.87
2019-01-10T00:10:09.809Z,79.89
2019-01-10T00:12:39.559Z,79.94
2019-01-10T00:15:11.133Z,79.93
2019-01-10T00:17:39.698Z,79.95
2019-01-10T00:20:09.934Z,80.09
2019-01-10T00:22:38.231Z,80.27
2019-01-10T00:25:08.979Z,80.40
2019-01-10T00:27:37.282Z,80.52
2019-01-10T00:30:11.432Z,80.71
2019-01-10T00:32:39.722Z,81.00
2019-01-10T00:35:09.180Z,81.01
2019-01-10T00:37:37.728Z,81.20
2019-01-10T00:40:11.956Z,81.35
2019-01-10T00:42:48.786Z,81.29
2019-01-10T00:45:13.450Z,81.33
2019-01-10T00:47:41.760Z,81.33
2019-01-10T00:50:15.411Z,81.36
2019-01-10T00:52:43.718Z,81.45
2019-01-10T00:55:12.147Z,81.58
2019-01-10T00:57:40.459Z,81.58
2019-01-10T01:00:18.006Z,81.57
2019-01-10T01:02:46.310Z,81.60
2019-01-10T01:05:15.386Z,81.72
2019-01-10T01:07:43.672Z,81.78
2019-01-10T01:10:14.851Z,81.70
2019-01-10T01:12:43.148Z,81.43
2019-01-10T01:15:13.580Z,81.56
2019-01-10T01:17:41.879Z,81.57
2019-01-10T01:20:11.700Z,81.23
2019-01-10T01:22:40.089Z,81.04
2019-01-10T01:25:09.912Z,80.97
2019-01-10T01:27:38.211Z,80.97
2019-01-10T01:30:09.811Z,80.85
2019-01-10T01:32:38.105Z,80.66
2019-01-10T01:35:07.342Z,80.69
2019-01-10T01:37:35.633Z,80.57
2019-01-10T01:40:06.558Z,80.72
2019-01-10T01:42:34.871Z,80.71
2019-01-10T01:45:03.164Z,80.60
2019-01-10T01:47:31.475Z,80.50
2019-01-10T01:50:00.447Z,80.40
2019-01-10T01:52:28.836Z,80.54
2019-01-10T01:54:57.120Z,80.18
2019-01-10T01:57:25.413Z,80.29
2019-01-10T01:59:53.787Z,80.42
2019-01-10T02:02:22.083Z,80.31
2019-01-10T02:04:50.698Z,80.35
2019-01-10T02:07:18.984Z,80.35
2019-01-10T02:09:47.287Z,80.33
2019-01-10T02:12:15.562Z,80.29
2019-01-10T02:14:43.850Z,80.11
2019-01-10T02:17:12.159Z,79.92
2019-01-10T02:19:40.441Z,80.23
2019-01-10T02:22:08.915Z,80.24
2019-01-10T02:24:37.213Z,80.19
2019-01-10T02:27:05.572Z,80.36
2019-01-10T02:29:33.866Z,80.35
2019-01-10T02:32:02.156Z,80.18
2019-01-10T02:34:30.691Z,80.04
2019-01-10T02:36:58.990Z,80.15
2019-01-10T02:39:27.283Z,80.25
2019-01-10T02:41:55.562Z,80.28
2019-01-10T02:44:23.882Z,80.26
2019-01-10T02:46:52.174Z,80.04
2019-01-10T02:49:20.459Z,79.89
2019-01-10T02:51:48.764Z,79.79
2019-01-10T02:54:17.040Z,79.89
2019-01-10T02:56:45.347Z,79.88
2019-01-10T02:59:13.632Z,80.00
2019-01-10T03:01:41.916Z,79.77
2019-01-10T03:04:10.491Z,79.87
2019-01-10T03:06:39.091Z,79.71
2019-01-10T03:09:09.134Z,79.99
2019-01-10T03:11:37.414Z,80.12
2019-01-10T03:14:05.778Z,80.02
2019-01-10T03:16:34.074Z,80.00
2019-01-10T03:19:02.602Z,79.94
2019-01-10T03:21:30.917Z,79.91
2019-01-10T03:23:59.204Z,80.03
2019-01-10T03:26:27.549Z,80.14
2019-01-10T03:28:55.856Z,80.34
2019-01-10T03:31:24.406Z,80.39
2019-01-10T03:33:52.971Z,80.34
2019-01-10T03:36:21.263Z,80.32
2019-01-10T03:38:49.582Z,80.40
2019-01-10T03:41:17.861Z,80.26
2019-01-10T03:43:47.426Z,80.30
2019-01-10T03:46:16.038Z,80.24
2019-01-10T03:48:44.321Z,80.10
2019-01-10T03:51:12.630Z,80.23
2019-01-10T03:53:40.915Z,80.11
2019-01-10T03:56:09.225Z,80.30
2019-01-10T03:58:37.522Z,80.23
2019-01-10T04:01:05.988Z,80.02
2019-01-10T04:03:34.267Z,80.10
2019-01-10T04:06:02.546Z,80.29
2019-01-10T04:08:30.861Z,80.42
2019-01-10T04:10:59.145Z,80.27
2019-01-10T04:13:27.448Z,80.35
2019-01-10T04:15:55.733Z,80.29
2019-01-10T04:18:24.032Z,80.40
2019-01-10T04:20:52.315Z,80.38
2019-01-10T04:23:20.626Z,80.30
2019-01-10T04:25:48.940Z,80.27
2019-01-10T04:28:17.221Z,80.44
2019-01-10T04:30:46.422Z,80.53
2019-01-10T04:33:16.445Z,80.67
2019-01-10T04:35:44.685Z,80.64
2019-01-10T04:38:12.965Z,80.60
2019-01-10T04:40:41.272Z,80.53
2019-01-10T04:43:09.800Z,80.82
2019-01-10T04:45:38.095Z,80.88
2019-01-10T04:48:06.410Z,80.88
2019-01-10T04:50:34.700Z,81.00
2019-01-10T04:53:03.248Z,80.82
2019-01-10T04:55:31.612Z,81.04
2019-01-10T04:57:59.921Z,81.01
2019-01-10T05:00:28.467Z,80.96
2019-01-10T05:02:56.771Z,81.08
2019-01-10T05:05:25.064Z,80.98
2019-01-10T05:07:53.376Z,81.03
2019-01-10T05:10:21.774Z,81.24
2019-01-10T05:12:50.405Z,81.11
2019-01-10T05:15:18.684Z,81.19
2019-01-10T05:17:47.230Z,81.25
2019-01-10T05:20:17.481Z,81.27
2019-01-10T05:22:45.902Z,81.08
2019-01-10T05:25:14.252Z,80.98
2019-01-10T05:27:42.565Z,81.27
2019-01-10T05:30:14.268Z,81.30
2019-01-10T05:32:42.564Z,81.44
2019-01-10T05:35:10.930Z,81.56
2019-01-10T05:37:39.246Z,81.58
2019-01-10T05:40:10.822Z,81.58
2019-01-10T05:42:39.116Z,81.26
2019-01-10T05:45:10.587Z,81.27
2019-01-10T05:47:38.945Z,81.43
2019-01-10T05:50:10.084Z,81.72
2019-01-10T05:52:38.449Z,81.87
2019-01-10T05:55:10.036Z,81.59
2019-01-10T05:57:38.593Z,81.71
2019-01-10T06:00:19.257Z,81.46
2019-01-10T06:02:47.548Z,81.94
2019-01-10T06:05:15.905Z,81.90
2019-01-10T06:07:44.208Z,81.62
2019-01-10T06:10:21.215Z,81.80
2019-01-10T06:12:49.515Z,81.92
2019-01-10T06:15:17.808Z,81.98
2019-01-10T06:17:46.189Z,82.10
2019-01-10T06:20:17.568Z,82.26
2019-01-10T06:22:45.867Z,82.25
2019-01-10T06:25:14.482Z,82.31
2019-01-10T06:27:42.776Z,82.08
2019-01-10T06:30:19.596Z,82.08
2019-01-10T06:32:47.910Z,82.14
2019-01-10T06:35:16.445Z,82.27
2019-01-10T06:37:44.755Z,82.07
2019-01-10T06:40:16.243Z,81.96
2019-01-10T06:42:44.526Z,81.96
2019-01-10T06:45:14.981Z,82.39
2019-01-10T06:47:43.265Z,82.43
2019-01-10T06:50:14.101Z,82.55
2019-01-10T06:52:42.397Z,82.59
2019-01-10T06:55:11.375Z,82.42
2019-01-10T06:57:39.668Z,82.48
2019-01-10T07:00:19.215Z,82.48
2019-01-10T07:02:47.699Z,82.51
2019-01-10T07:05:15.937Z,82.63
2019-01-10T07:07:44.257Z,82.55
2019-01-10T07:10:18.428Z,82.56
2019-01-10T07:12:46.735Z,82.56
2019-01-10T07:15:15.302Z,82.63
2019-01-10T07:17:43.610Z,82.60
2019-01-10T07:20:12.789Z,82.49
2019-01-10T07:22:46.464Z,82.70
2019-01-10T07:25:14.925Z,82.82
2019-01-10T07:27:43.409Z,82.67
2019-01-10T07:30:15.106Z,82.64
2019-01-10T07:32:43.669Z,82.66
2019-01-10T07:35:12.205Z,82.64
2019-01-10T07:37:40.781Z,82.51
2019-01-10T07:40:12.115Z,82.71
2019-01-10T07:42:40.416Z,82.85
2019-01-10T07:45:17.122Z,82.72
2019-01-10T07:47:48.470Z,82.62
2019-01-10T07:50:19.058Z,82.54
2019-01-10T07:52:47.687Z,82.56
2019-01-10T07:55:15.995Z,82.52
2019-01-10T07:57:44.283Z,82.43
2019-01-10T08:00:18.049Z,82.37
2019-01-10T08:02:46.428Z,82.34
2019-01-10T08:05:15.121Z,82.19
2019-01-10T08:07:43.710Z,82.15
2019-01-10T08:10:14.821Z,82.10
2019-01-10T08:12:43.146Z,82.12
2019-01-10T08:15:14.685Z,82.04
2019-01-10T08:17:43.235Z,82.05
2019-01-10T08:20:11.681Z,82.15
2019-01-10T08:22:40.223Z,82.11
2019-01-10T08:25:09.454Z,81.98
2019-01-10T08:27:37.823Z,82.03
2019-01-10T08:30:12.208Z,82.15
2019-01-10T08:32:40.743Z,82.08
2019-01-10T08:35:09.703Z,81.75
2019-01-10T08:37:38.000Z,81.64
2019-01-10T08:40:08.344Z,81.27
2019-01-10T08:42:36.643Z,81.57
2019-01-10T08:45:07.431Z,81.74
2019-01-10T08:47:35.724Z,80.95
2019-01-10T08:50:06.908Z,81.27
2019-01-10T08:52:35.211Z,81.53
2019-01-10T08:55:03.964Z,81.77
2019-01-10T08:57:32.267Z,81.81
2019-01-10T09:00:00.561Z,81.88
2019-01-10T09:02:28.872Z,81.98
2019-01-10T09:04:57.403Z,81.81
2019-01-10T09:07:25.700Z,81.76
2019-01-10T09:09:54.032Z,81.72
2019-01-10T09:12:22.404Z,81.73
2019-01-10T09:14:50.717Z,81.80
2019-01-10T09:17:19.242Z,81.61
2019-01-10T09:19:47.554Z,81.59
2019-01-10T09:22:16.087Z,81.43
2019-01-10T09:24:44.434Z,81.00
2019-01-10T09:27:12.735Z,80.85
2019-01-10T09:29:41.035Z,80.78
2019-01-10T09:32:09.314Z,80.65
2019-01-10T09:34:37.628Z,79.85
2019-01-10T09:37:05.987Z,79.90
2019-01-10T09:39:34.280Z,80.03
2019-01-10T09:42:02.579Z,80.14
2019-01-10T09:44:30.883Z,79.69
2019-01-10T09:46:59.433Z,79.67
2019-01-10T09:49:27.722Z,79.47
2019-01-10T09:51:56.298Z,79.81
2019-01-10T09:54:24.830Z,80.17
2019-01-10T09:56:53.118Z,79.13
2019-01-10T09:59:21.421Z,79.66
2019-01-10T10:01:49.720Z,80.26
2019-01-10T10:04:18.033Z,80.41
2019-01-10T10:06:46.329Z,80.21
2019-01-10T10:09:14.637Z,80.32
2019-01-10T10:11:42.917Z,80.42
2019-01-10T10:14:11.212Z,80.48
2019-01-10T10:16:39.527Z,79.91
2019-01-10T10:19:07.828Z,80.16
2019-01-10T10:21:36.128Z,80.41
2019-01-10T10:24:04.480Z,80.60
2019-01-10T10:26:32.783Z,80.35
2019-01-10T10:29:01.081Z,80.48
2019-01-10T10:31:29.377Z,80.53
2019-01-10T10:33:57.694Z,80.19
2019-01-10T10:36:26.243Z,80.02
2019-01-10T10:38:54.549Z,79.82
2019-01-10T10:41:22.844Z,79.44
2019-01-10T10:43:51.160Z,79.01
2019-01-10T10:46:19.713Z,79.11
2019-01-10T10:48:48.002Z,78.92
2019-01-10T10:51:16.318Z,78.47
2019-01-10T10:53:44.600Z,77.91
2019-01-10T10:56:12.971Z,78.34
2019-01-10T10:58:41.253Z,77.78
2019-01-10T11:01:10.384Z,77.52
2019-01-10T11:03:38.908Z,77.61
2019-01-10T11:06:07.338Z,77.37
2019-01-10T11:08:35.637Z,76.69
2019-01-10T11:11:04.239Z,77.28
2019-01-10T11:13:32.543Z,77.98
2019-01-10T11:16:00.843Z,78.06
2019-01-10T11:18:29.152Z,78.06
2019-01-10T11:20:57.457Z,77.45
2019-01-10T11:23:25.777Z,77.47
2019-01-10T11:25:54.065Z,77.32
2019-01-10T11:28:22.362Z,76.39
2019-01-10T11:30:50.922Z,76.97
2019-01-10T11:33:19.479Z,77.23
2019-01-10T11:35:47.780Z,77.58
2019-01-10T11:38:16.066Z,77.65
2019-01-10T11:40:44.377Z,77.33
2019-01-10T11:43:12.669Z,77.54
2019-01-10T11:45:40.983Z,77.97
2019-01-10T11:48:09.263Z,77.90
2019-01-10T11:50:37.586Z,77.69
2019-01-10T11:53:05.882Z,77.34
2019-01-10T11:55:34.176Z,77.67
2019-01-10T11:58:02.496Z,77.46
2019-01-10T12:00:30.854Z,77.67
2019-01-10T12:02:59.160Z,77.84
2019-01-10T12:05:27.455Z,77.94
2019-01-10T12:07:56.059Z,78.17
2019-01-10T12:10:24.534Z,77.95
2019-01-10T12:12:52.898Z,77.83
2019-01-10T12:15:21.212Z,77.91
2019-01-10T12:17:49.496Z,77.87
2019-01-10T12:20:19.051Z,77.87
2019-01-10T12:22:48.480Z,77.76
2019-01-10T12:25:18.373Z,77.05
2019-01-10T12:27:46.908Z,77.50
2019-01-10T12:30:18.207Z,77.87
2019-01-10T12:32:46.525Z,77.89
2019-01-10T12:35:15.056Z,78.14
2019-01-10T12:37:43.677Z,78.23
2019-01-10T12:40:13.915Z,78.02
2019-01-10T12:42:42.349Z,77.90
2019-01-10T12:45:13.841Z,78.35
2019-01-10T12:47:42.196Z,78.55
2019-01-10T12:50:21.793Z,78.36
2019-01-10T12:52:50.080Z,78.31
2019-01-10T12:55:18.386Z,78.30
2019-01-10T12:57:46.681Z,78.68
2019-01-10T13:00:17.286Z,78.26
2019-01-10T13:02:45.666Z,77.92
2019-01-10T13:05:14.232Z,78.07
2019-01-10T13:07:42.871Z,78.21
2019-01-10T13:10:16.156Z,78.21
2019-01-10T13:12:44.545Z,77.78
2019-01-10T13:15:15.776Z,77.19
2019-01-10T13:17:44.055Z,77.27
2019-01-10T13:20:12.912Z,77.51
2019-01-10T13:22:41.443Z,77.90
2019-01-10T13:25:15.240Z,78.21
2019-01-10T13:27:44.399Z,77.89
2019-01-10T13:30:23.280Z,77.78
2019-01-10T13:32:52.109Z,78.05
2019-01-10T13:35:20.412Z,78.18
2019-01-10T13:37:48.790Z,78.33
2019-01-10T13:40:17.494Z,78.42
2019-01-10T13:42:45.936Z,78.33
2019-01-10T13:45:15.759Z,78.01
2019-01-10T13:47:45.783Z,77.91
2019-01-10T13:50:16.825Z,77.89
2019-01-10T13:52:45.133Z,78.05
2019-01-10T13:55:15.857Z,78.29
2019-01-10T13:57:44.144Z,78.28
2019-01-10T14:00:15.617Z,78.27
2019-01-10T14:02:43.921Z,78.63
2019-01-10T14:05:12.540Z,78.58
2019-01-10T14:07:40.837Z,78.68
2019-01-10T14:10:11.860Z,78.73
2019-01-10T14:12:40.155Z,78.18
2019-01-10T14:15:11.646Z,78.35
2019-01-10T14:17:39.948Z,78.56
2019-01-10T14:20:10.425Z,78.45
2019-01-10T14:22:38.727Z,78.57
2019-01-10T14:25:07.576Z,78.68
2019-01-10T14:27:36.228Z,78.85
2019-01-10T14:30:21.816Z,79.12
2019-01-10T14:32:50.120Z,78.98
2019-01-10T14:35:19.277Z,79.07
2019-01-10T14:37:47.899Z,79.15
2019-01-10T14:40:16.532Z,79.24
2019-01-10T14:42:45.060Z,79.22
2019-01-10T14:45:17.949Z,79.26
2019-01-10T14:47:46.323Z,79.43
2019-01-10T14:50:16.815Z,79.25
2019-01-10T14:52:45.118Z,79.49
2019-01-10T14:55:14.256Z,79.76
2019-01-10T14:57:42.881Z,79.79
2019-01-10T15:00:22.270Z,79.80
2019-01-10T15:02:50.644Z,79.81
2019-01-10T15:05:20.488Z,79.84
2019-01-10T15:07:48.995Z,80.11
2019-01-10T15:10:17.792Z,80.25
2019-01-10T15:12:47.817Z,80.22
2019-01-10T15:15:18.527Z,80.35
2019-01-10T15:17:46.893Z,80.49
2019-01-10T15:20:26.267Z,80.65
2019-01-10T15:22:54.886Z,80.54
2019-01-10T15:25:23.268Z,80.77
2019-01-10T15:27:51.549Z,80.90
2019-01-10T15:30:21.876Z,80.88
2019-01-10T15:32:50.196Z,80.94
2019-01-10T15:35:18.480Z,81.03
2019-01-10T15:37:46.798Z,81.16
2019-01-10T15:40:26.782Z,81.24
2019-01-10T15:42:55.464Z,81.49
2019-01-10T15:45:24.011Z,81.64
2019-01-10T15:47:52.364Z,81.64
2019-01-10T15:50:20.855Z,81.72
2019-01-10T15:52:49.276Z,81.67
2019-01-10T15:55:19.428Z,81.85
2019-01-10T15:57:47.726Z,81.92
2019-01-10T16:00:18.161Z,82.02
2019-01-10T16:02:46.474Z,82.11
2019-01-10T16:05:14.839Z,82.07
2019-01-10T16:07:43.230Z,82.17
2019-01-10T16:10:13.864Z,82.41
2019-01-10T16:12:42.168Z,82.53
2019-01-10T16:15:21.489Z,82.66
2019-01-10T16:17:49.805Z,82.85
2019-01-10T16:20:18.157Z,82.91
2019-01-10T16:22:46.688Z,82.94
2019-01-10T16:25:17.132Z,83.08
2019-01-10T16:27:45.415Z,83.18
2019-01-10T16:30:25.194Z,83.15
2019-01-10T16:32:53.481Z,83.21
2019-01-10T16:35:21.795Z,83.25
2019-01-10T16:37:50.172Z,83.31
2019-01-10T16:40:18.853Z,83.28
2019-01-10T16:42:47.147Z,83.27
2019-01-10T16:45:20.800Z,83.09
2019-01-10T16:47:49.100Z,83.04
2019-01-10T16:50:17.470Z,83.03
2019-01-10T16:52:45.773Z,82.98
2019-01-10T16:55:14.312Z,83.02
2019-01-10T16:57:42.856Z,82.94
2019-01-10T17:00:25.478Z,82.86
2019-01-10T17:02:53.769Z,82.80
2019-01-10T17:05:22.074Z,82.82
2019-01-10T17:07:50.697Z,82.81
2019-01-10T17:10:19.226Z,82.93
2019-01-10T17:12:47.793Z,82.84
2019-01-10T17:15:16.733Z,82.81
2019-01-10T17:17:46.280Z,82.81
2019-01-10T17:20:17.202Z,82.88
2019-01-10T17:22:45.469Z,83.05
2019-01-10T17:25:14.545Z,83.13
2019-01-10T17:27:42.846Z,83.09
2019-01-10T17:30:20.213Z,83.22
2019-01-10T17:32:48.509Z,83.41
2019-01-10T17:35:19.956Z,83.60
2019-01-10T17:37:48.251Z,83.67
2019-01-10T17:40:19.314Z,83.67
2019-01-10T17:42:47.867Z,83.67
2019-01-10T17:45:18.801Z,83.70
2019-01-10T17:47:47.117Z,83.77
2019-01-10T17:50:17.550Z,83.90
2019-01-10T17:52:45.928Z,84.03
2019-01-10T17:55:14.549Z,84.00
2019-01-10T17:57:42.917Z,83.97
2019-01-10T18:00:14.245Z,83.76
2019-01-10T18:02:42.527Z,83.64
2019-01-10T18:05:10.850Z,83.65
2019-01-10T18:07:39.143Z,83.74
2019-01-10T18:10:10.625Z,83.87
2019-01-10T18:12:38.925Z,83.90
2019-01-10T18:15:09.566Z,84.06
2019-01-10T18:17:37.870Z,84.16
2019-01-10T18:20:09.324Z,84.17
2019-01-10T18:22:37.883Z,84.27
2019-01-10T18:25:09.105Z,84.39
2019-01-10T18:27:37.659Z,84.42
2019-01-10T18:30:09.362Z,84.51
2019-01-10T18:32:37.677Z,84.57
2019-01-10T18:35:06.686Z,84.55
2019-01-10T18:37:34.985Z,84.50
2019-01-10T18:40:04.551Z,84.52
2019-01-10T18:42:33.113Z,84.49
2019-01-10T18:45:01.684Z,84.38
2019-01-10T18:47:30.230Z,84.32
2019-01-10T18:49:58.538Z,84.38
2019-01-10T18:52:26.816Z,84.43
2019-01-10T18:55:00.230Z,84.45
2019-01-10T18:57:25.135Z,84.53
2019-01-10T18:59:53.430Z,84.68
2019-01-10T19:02:21.745Z,84.78
2019-01-10T19:04:50.042Z,84.82
2019-01-10T19:07:18.414Z,84.86
2019-01-10T19:09:46.948Z,84.87
2019-01-10T19:12:15.304Z,84.90
2019-01-10T19:14:43.566Z,85.05
2019-01-10T19:17:11.883Z,85.11
2019-01-10T19:19:40.183Z,85.18
2019-01-10T19:22:08.493Z,85.23
2019-01-10T19:24:36.800Z,85.34
2019-01-10T19:27:05.123Z,85.24
2019-01-10T19:29:33.420Z,85.36
2019-01-10T19:32:01.726Z,85.61
2019-01-10T19:34:30.038Z,85.81
2019-01-10T19:36:58.588Z,85.94
2019-01-10T19:39:26.900Z,85.96
2019-01-10T19:41:55.190Z,85.90
2019-01-10T19:44:23.485Z,86.04
2019-01-10T19:46:52.036Z,86.04
2019-01-10T19:49:20.333Z,86.29
2019-01-10T19:51:48.647Z,86.42
2019-01-10T19:54:17.983Z,86.55
2019-01-10T19:56:46.349Z,86.59
2019-01-10T19:59:14.643Z,86.75
2019-01-10T20:01:42.941Z,86.77
2019-01-10T20:04:11.236Z,86.95
2019-01-10T20:06:39.555Z,87.03
2019-01-10T20:09:08.482Z,87.30
2019-01-10T20:11:37.103Z,87.35
2019-01-10T20:14:05.920Z,87.50
2019-01-10T20:16:34.275Z,87.70
2019-01-10T20:19:02.578Z,87.68
2019-01-10T20:21:31.111Z,87.82
2019-01-10T20:23:59.419Z,87.94
2019-01-10T20:26:27.705Z,87.93
2019-01-10T20:28:56.008Z,88.26
2019-01-10T20:31:24.313Z,88.38
2019-01-10T20:33:52.881Z,88.45
2019-01-10T20:36:21.175Z,88.34
2019-01-10T20:38:49.708Z,88.71
2019-01-10T20:41:18.260Z,88.89
2019-01-10T20:43:46.543Z,88.90
2019-01-10T20:46:14.871Z,89.00
2019-01-10T20:48:43.153Z,88.93
2019-01-10T20:51:11.468Z,89.00
2019-01-10T20:53:39.750Z,89.13
2019-01-10T20:56:08.041Z,89.26
2019-01-10T20:58:36.362Z,89.30
2019-01-10T21:01:04.729Z,89.48
2019-01-10T21:03:33.047Z,89.45
2019-01-10T21:06:01.608Z,89.54
2019-01-10T21:08:30.157Z,89.66
2019-01-10T21:10:58.448Z,89.65
2019-01-10T21:13:26.742Z,89.65
2019-01-10T21:15:55.125Z,89.70
2019-01-10T21:18:28.672Z,89.71
2019-01-10T21:20:53.444Z,89.81
2019-01-10T21:23:23.009Z,89.89
2019-01-10T21:25:51.952Z,89.84
2019-01-10T21:28:21.889Z,89.93
2019-01-10T21:30:50.187Z,89.99
2019-01-10T21:33:18.720Z,89.98
2019-01-10T21:35:47.018Z,89.95
2019-01-10T21:38:15.334Z,90.03
2019-01-10T21:40:43.625Z,90.06
2019-01-10T21:43:11.956Z,90.04
2019-01-10T21:45:40.317Z,90.12
2019-01-10T21:48:08.616Z,90.21
2019-01-10T21:50:36.902Z,90.25
2019-01-10T21:53:06.154Z,90.19
2019-01-10T21:55:34.531Z,90.23
2019-01-10T21:58:04.020Z,90.26
2019-01-10T22:00:32.633Z,90.29
2019-01-10T22:03:01.641Z,90.34
2019-01-10T22:05:29.951Z,90.36
2019-01-10T22:07:58.244Z,90.41
2019-01-10T22:10:27.839Z,90.46
2019-01-10T22:12:56.139Z,90.48
2019-01-10T22:15:24.442Z,90.50
2019-01-10T22:17:52.727Z,90.53
2019-01-10T22:20:21.871Z,90.44
2019-01-10T22:22:50.399Z,90.53
2019-01-10T22:25:19.086Z,90.67
2019-01-10T22:27:47.386Z,90.40
2019-01-10T22:30:23.161Z,90.47
2019-01-10T22:32:51.525Z,90.41
2019-01-10T22:35:21.353Z,90.51
2019-01-10T22:37:49.718Z,90.72
2019-01-10T22:40:20.408Z,90.82
2019-01-10T22:42:48.723Z,90.96
2019-01-10T22:45:17.632Z,91.09
2019-01-10T22:47:46.004Z,91.09
2019-01-10T22:50:16.724Z,91.01
2019-01-10T22:52:45.017Z,90.92
2019-01-10T22:55:14.373Z,91.08
2019-01-10T22:57:42.678Z,91.18
2019-01-10T23:00:33.537Z,91.24
2019-01-10T23:03:07.518Z,91.16
2019-01-10T23:05:44.868Z,91.14
2019-01-10T23:08:13.229Z,91.24
2019-01-10T23:10:41.535Z,91.22
2019-01-10T23:13:10.092Z,90.98
2019-01-10T23:15:38.393Z,91.18
2019-01-10T23:18:07.327Z,91.36
2019-01-10T23:20:35.613Z,91.42
2019-01-10T23:23:06.730Z,91.34
2019-01-10T23:25:35.088Z,91.27
2019-01-10T23:28:03.579Z,91.50
2019-01-10T23:30:49.470Z,91.63
2019-01-10T23:33:18.786Z,91.63
2019-01-10T23:35:48.125Z,91.60
2019-01-10T23:38:19.585Z,91.64
2019-01-10T23:40:48.162Z,91.47
2019-01-10T23:43:16.470Z,91.49
2019-01-10T23:45:44.775Z,91.72
2019-01-10T23:48:13.083Z,91.77
2019-01-10T23:50:41.475Z,91.88
2019-01-10T23:53:09.832Z,91.64
2019-01-10T23:55:38.133Z,91.65
2019-01-10T23:58:06.443Z,91.72
